Time;durP1;ratioP1;P1;durP2;ratioP2;P2;SDS_P1;SDS_P2;PMS_P1;PMS_P2;Temp;Humidity;BMP_temperature;BMP_pressure;BME280_temperature;BME280_humidity;BME280_pressure;Samples;Min_cycle;Max_cycle;Signal;HPM_P1;HPM_P2
2023/03/07 00:00:15;;;;;;;14.20;8.80;;;;;-0.30;92761.00;;;;7393274;19;20149;-70
2023/03/07 00:02:52;;;;;;;14.90;9.53;;;;;-0.30;92763.00;;;;7393842;19;20167;-70
2023/03/07 00:05:40;;;;;;;13.60;8.47;;;;;-0.30;92765.00;;;;7392632;19;20223;-70
2023/03/07 00:08:14;;;;;;;13.70;8.97;;;;;-0.30;92764.00;;;;7391945;19;20180;-70
2023/03/07 00:10:48;;;;;;;17.90;9.53;;;;;-0.10;92768.00;;;;7394390;19;20587;-69
2023/03/07 00:13:24;;;;;;;15.53;8.83;;;;;-0.20;92771.00;;;;7398661;19;20124;-70
2023/03/07 00:16:08;;;;;;;11.60;8.67;;;;;-0.30;92773.00;;;;7405965;19;20159;-70
2023/03/07 00:18:35;;;;;;;19.27;9.77;;;;;-0.20;92769.00;;;;7406786;19;20155;-69
2023/03/07 00:21:15;;;;;;;15.57;9.50;;;;;-0.20;92780.00;;;;7408880;19;20473;-69
2023/03/07 00:23:44;;;;;;;15.07;9.27;;;;;-0.20;92766.00;;;;7408626;19;20135;-70
2023/03/07 00:26:21;;;;;;;17.60;11.13;;;;;-0.20;92762.00;;;;7405059;19;20180;-69
2023/03/07 00:28:50;;;;;;;16.47;10.00;;;;;-0.20;92770.00;;;;7406604;19;20587;-70
2023/03/07 00:31:24;;;;;;;15.97;9.57;;;;;-0.20;92758.00;;;;7407957;19;20155;-70
2023/03/07 00:33:52;;;;;;;16.47;9.97;;;;;-0.20;92755.00;;;;7406948;19;20629;-70
2023/03/07 00:36:25;;;;;;;16.87;10.00;;;;;-0.20;92752.00;;;;7405289;19;20926;-69
2023/03/07 00:38:59;;;;;;;16.73;10.00;;;;;-0.20;92750.00;;;;7405191;19;20151;-70
2023/03/07 00:41:33;;;;;;;18.23;10.57;;;;;0.10;92753.00;;;;7407872;19;20133;-69
2023/03/07 00:44:07;;;;;;;16.83;9.93;;;;;0.00;92744.00;;;;7406206;19;20149;-70
2023/03/07 00:46:35;;;;;;;13.73;9.63;;;;;-0.20;92748.00;;;;7403957;19;20467;-70
2023/03/07 00:49:09;;;;;;;15.83;9.70;;;;;-0.10;92743.00;;;;7406656;19;20208;-69
2023/03/07 00:51:37;;;;;;;18.17;9.40;;;;;0.00;92752.00;;;;7406128;19;20125;-70
2023/03/07 00:54:10;;;;;;;15.27;9.60;;;;;-0.10;92743.00;;;;7406328;19;20141;-70
2023/03/07 00:56:38;;;;;;;14.87;9.30;;;;;-0.10;92733.00;;;;7403743;19;20149;-69
2023/03/07 00:59:11;;;;;;;14.47;9.33;;;;;-0.10;92740.00;;;;7406071;19;20128;-70
2023/03/07 01:01:45;;;;;;;16.00;9.13;;;;;0.00;92730.00;;;;7407124;19;20200;-70
2023/03/07 01:04:19;;;;;;;14.43;8.97;;;;;0.00;92737.00;;;;7403534;19;20173;-69
2023/03/07 01:07:01;;;;;;;19.00;10.33;;;;;0.00;92721.00;;;;7405083;19;20125;-69
2023/03/07 01:09:35;;;;;;;15.30;10.17;;;;;0.00;92723.00;;;;7406465;19;20587;-69
2023/03/07 01:12:06;;;;;;;15.43;9.87;;;;;0.00;92727.00;;;;7407414;19;20136;-69
2023/03/07 01:14:39;;;;;;;17.10;9.93;;;;;-0.10;92718.00;;;;7405332;19;20132;-69
2023/03/07 01:17:07;;;;;;;14.97;9.33;;;;;0.00;92716.00;;;;7402600;19;20167;-70
2023/03/07 01:19:40;;;;;;;18.00;9.67;;;;;0.00;92717.00;;;;7405035;19;20125;-69
2023/03/07 01:22:08;;;;;;;16.60;9.80;;;;;0.00;92715.00;;;;7405572;19;20125;-70
2023/03/07 01:24:41;;;;;;;16.47;10.43;;;;;-0.10;92717.00;;;;7401565;19;20485;-70
2023/03/07 01:27:09;;;;;;;17.80;9.63;;;;;-0.10;92713.00;;;;7396738;19;20201;-69
2023/03/07 01:29:42;;;;;;;22.57;10.50;;;;;-0.20;92716.00;;;;7397891;19;20152;-69
2023/03/07 01:32:10;;;;;;;19.07;10.70;;;;;-0.20;92711.00;;;;7399054;19;20151;-69
2023/03/07 01:34:43;;;;;;;19.17;10.60;;;;;-0.20;92716.00;;;;7398657;19;20136;-69
2023/03/07 01:37:11;;;;;;;21.17;10.87;;;;;-0.30;92711.00;;;;7394821;19;20196;-70
2023/03/07 01:39:45;;;;;;;19.00;11.37;;;;;-0.30;92707.00;;;;7398709;19;20129;-69
2023/03/07 01:42:13;;;;;;;19.33;11.07;;;;;-0.40;92706.00;;;;7399742;19;20635;-69
2023/03/07 01:45:05;;;;;;;19.60;11.40;;;;;-0.40;92705.00;;;;7397589;19;20172;-70
2023/03/07 01:47:33;;;;;;;16.27;10.63;;;;;-0.50;92700.00;;;;7394646;19;20191;-70
2023/03/07 01:50:12;;;;;;;19.40;10.07;;;;;-0.40;92705.00;;;;7398444;19;20132;-69
2023/03/07 01:52:41;;;;;;;18.70;11.03;;;;;-0.40;92694.00;;;;7398385;19;20155;-69
2023/03/07 01:55:26;;;;;;;17.73;10.70;;;;;-0.40;92695.00;;;;7397681;19;20216;-69
2023/03/07 01:57:55;;;;;;;16.80;10.93;;;;;-0.50;92700.00;;;;7396780;19;20132;-70
2023/03/07 02:00:29;;;;;;;19.77;10.77;;;;;-0.60;92682.00;;;;7396866;19;20165;-70
2023/03/07 02:03:16;;;;;;;18.20;10.90;;;;;-0.60;92685.00;;;;7393734;19;20240;-70
2023/03/07 02:05:55;;;;;;;17.17;10.33;;;;;-0.70;92689.00;;;;7394320;19;20144;-69
2023/03/07 02:08:30;;;;;;;20.93;11.17;;;;;-0.70;92689.00;;;;7393960;19;20144;-70
2023/03/07 02:11:05;;;;;;;17.73;11.10;;;;;-0.80;92691.00;;;;7393857;19;20148;-69
2023/03/07 02:13:32;;;;;;;20.93;10.93;;;;;-0.70;92692.00;;;;7397457;19;20129;-69
2023/03/07 02:16:07;;;;;;;19.70;10.47;;;;;-0.70;92689.00;;;;7395574;19;20165;-70
2023/03/07 02:18:45;;;;;;;17.57;10.97;;;;;-0.80;92682.00;;;;7398571;19;20128;-72
2023/03/07 02:21:31;;;;;;;19.63;11.47;;;;;-0.90;92681.00;;;;7395544;19;20638;-70
2023/03/07 02:24:27;;;;;;;17.43;10.40;;;;;-0.80;92667.00;;;;7396321;19;20161;-70
2023/03/07 02:27:01;;;;;;;19.73;10.50;;;;;-0.80;92663.00;;;;7392724;19;20172;-70
2023/03/07 02:29:35;;;;;;;18.13;10.00;;;;;-0.80;92674.00;;;;7395908;19;20200;-70
2023/03/07 02:32:10;;;;;;;15.33;9.70;;;;;-0.90;92676.00;;;;7394800;19;20157;-69
2023/03/07 02:34:43;;;;;;;15.47;9.87;;;;;-0.80;92669.00;;;;7396002;19;20474;-69
2023/03/07 02:37:38;;;;;;;18.07;10.37;;;;;-0.90;92672.00;;;;7395573;19;20144;-69
2023/03/07 02:40:08;;;;;;;17.30;10.50;;;;;-0.90;92668.00;;;;7396321;19;20144;-70
2023/03/07 02:42:43;;;;;;;18.77;10.87;;;;;-0.80;92665.00;;;;7397314;19;20525;-70
2023/03/07 02:45:14;;;;;;;20.83;11.43;;;;;-0.70;92666.00;;;;7393797;19;20124;-69
2023/03/07 02:47:48;;;;;;;17.03;10.70;;;;;-0.60;92675.00;;;;7393868;19;20148;-70
2023/03/07 02:50:17;;;;;;;24.43;11.13;;;;;-0.50;92668.00;;;;7395243;19;20149;-69
2023/03/07 02:52:51;;;;;;;18.93;11.40;;;;;-0.30;92668.00;;;;7395834;19;20168;-69
2023/03/07 02:55:25;;;;;;;20.30;11.30;;;;;-0.30;92669.00;;;;7394486;19;20160;-69
2023/03/07 02:57:53;;;;;;;18.90;11.23;;;;;-0.30;92676.00;;;;7387144;19;20136;-69
2023/03/07 03:00:20;;;;;;;18.30;11.47;;;;;-0.30;92675.00;;;;7391922;19;20153;-69
2023/03/07 03:02:54;;;;;;;19.77;11.83;;;;;-0.30;92669.00;;;;7394500;19;20164;-69
2023/03/07 03:05:22;;;;;;;20.10;11.63;;;;;-0.20;92663.00;;;;7394634;19;20180;-69
2023/03/07 03:08:02;;;;;;;19.23;11.03;;;;;-0.20;92673.00;;;;7394801;19;20132;-69
2023/03/07 03:10:29;;;;;;;18.83;10.80;;;;;-0.10;92671.00;;;;7393602;19;20496;-71
2023/03/07 03:13:03;;;;;;;18.93;11.00;;;;;-0.10;92668.00;;;;7395429;19;20216;-69
2023/03/07 03:15:31;;;;;;;18.37;10.93;;;;;0.00;92672.00;;;;7394453;19;20137;-69
2023/03/07 03:18:05;;;;;;;14.97;9.60;;;;;0.10;92669.00;;;;7394517;19;20591;-70
2023/03/07 03:20:33;;;;;;;20.77;10.77;;;;;-0.10;92668.00;;;;7394648;19;20697;-69
2023/03/07 03:23:06;;;;;;;17.57;11.37;;;;;-0.10;92669.00;;;;7394448;19;20615;-69
2023/03/07 03:25:40;;;;;;;19.77;11.43;;;;;0.00;92671.00;;;;7392937;19;20136;-69
2023/03/07 03:28:14;;;;;;;17.47;10.93;;;;;0.00;92672.00;;;;7393337;19;20118;-69
2023/03/07 03:30:42;;;;;;;18.70;10.97;;;;;0.00;92675.00;;;;7394991;19;20148;-69
2023/03/07 03:33:15;;;;;;;20.13;11.20;;;;;-0.10;92666.00;;;;7392979;19;20627;-69
2023/03/07 03:35:49;;;;;;;17.17;10.83;;;;;-0.10;92684.00;;;;7391356;19;20193;-69
2023/03/07 03:38:17;;;;;;;16.93;10.63;;;;;-0.10;92667.00;;;;7393756;19;20643;-69
2023/03/07 03:40:52;;;;;;;21.27;11.30;;;;;-0.20;92675.00;;;;7394417;19;20128;-68
2023/03/07 03:43:19;;;;;;;17.80;10.93;;;;;-0.20;92669.00;;;;7393480;19;20601;-69
2023/03/07 03:45:54;;;;;;;17.97;11.03;;;;;-0.30;92670.00;;;;7391027;19;20168;-69
2023/03/07 03:48:22;;;;;;;20.87;12.07;;;;;-0.40;92671.00;;;;7390741;19;20141;-69
2023/03/07 03:51:05;;;;;;;19.17;11.73;;;;;-0.40;92667.00;;;;7393376;19;20123;-69
2023/03/07 03:53:34;;;;;;;18.03;11.33;;;;;-0.50;92660.00;;;;7395032;19;20128;-69
2023/03/07 03:56:17;;;;;;;20.53;11.73;;;;;-0.40;92658.00;;;;7392232;19;20177;-69
2023/03/07 03:58:47;;;;;;;18.93;11.20;;;;;-0.40;92662.00;;;;7393599;19;20139;-70
2023/03/07 04:01:24;;;;;;;18.97;11.20;;;;;-0.40;92659.00;;;;7394243;19;20136;-69
2023/03/07 04:03:52;;;;;;;17.70;11.20;;;;;-0.50;92659.00;;;;7393139;19;20141;-69
2023/03/07 04:06:34;;;;;;;20.50;12.43;;;;;-0.60;92660.00;;;;7391394;19;20614;-68
2023/03/07 04:09:03;;;;;;;19.87;11.50;;;;;-0.60;92654.00;;;;7391811;19;20195;-69
2023/03/07 04:11:37;;;;;;;19.30;11.37;;;;;-0.50;92658.00;;;;7392269;19;20132;-69
2023/03/07 04:14:12;;;;;;;20.63;12.67;;;;;-0.60;92653.00;;;;7393104;19;20161;-71
2023/03/07 04:16:46;;;;;;;21.47;12.73;;;;;-0.60;92650.00;;;;7391276;19;20129;-69
2023/03/07 04:19:14;;;;;;;18.20;11.40;;;;;-0.60;92646.00;;;;7394898;19;20121;-68
2023/03/07 04:21:48;;;;;;;19.97;11.37;;;;;-0.50;92646.00;;;;7392869;19;20142;-68
2023/03/07 04:24:15;;;;;;;23.83;12.77;;;;;-0.40;92641.00;;;;7392866;19;20493;-68
2023/03/07 04:26:43;;;;;;;21.63;11.83;;;;;-0.50;92642.00;;;;7390809;19;20220;-69
2023/03/07 04:29:16;;;;;;;19.53;11.70;;;;;-0.50;92630.00;;;;7393309;19;20133;-69
2023/03/07 04:31:51;;;;;;;25.00;12.40;;;;;-0.50;92633.00;;;;7392864;19;20124;-69
2023/03/07 04:34:26;;;;;;;16.73;10.90;;;;;-0.50;92638.00;;;;7394344;19;20141;-69
2023/03/07 04:36:53;;;;;;;18.83;11.70;;;;;-0.30;92639.00;;;;7389580;19;20225;-69
2023/03/07 04:39:26;;;;;;;22.53;12.17;;;;;-0.30;92628.00;;;;7392278;19;20148;-69
2023/03/07 04:42:00;;;;;;;19.67;11.50;;;;;-0.40;92620.00;;;;7393632;19;20136;-69
2023/03/07 04:44:34;;;;;;;20.17;11.83;;;;;-0.40;92624.00;;;;7391153;19;20194;-69
2023/03/07 04:47:02;;;;;;;20.53;12.23;;;;;-0.40;92634.00;;;;7390150;19;20140;-69
2023/03/07 04:49:35;;;;;;;18.60;12.13;;;;;-0.50;92619.00;;;;7391987;19;20143;-69
2023/03/07 04:52:09;;;;;;;21.00;11.27;;;;;-0.40;92632.00;;;;7392450;19;20864;-69
2023/03/07 04:54:37;;;;;;;20.67;11.37;;;;;-0.30;92632.00;;;;7393475;19;20141;-69
2023/03/07 04:57:05;;;;;;;21.00;11.43;;;;;-0.30;92624.00;;;;7389078;19;20129;-68
2023/03/07 04:59:38;;;;;;;21.60;11.90;;;;;-0.40;92627.00;;;;7394606;19;20505;-69
2023/03/07 05:02:13;;;;;;;18.63;11.83;;;;;-0.30;92616.00;;;;7398490;19;20149;-69
2023/03/07 05:04:41;;;;;;;18.87;11.73;;;;;-0.60;92619.00;;;;7399770;19;20148;-69
2023/03/07 05:07:21;;;;;;;19.80;11.00;;;;;-0.30;92610.00;;;;7396510;19;20160;-69
2023/03/07 05:09:48;;;;;;;21.43;11.57;;;;;-0.40;92602.00;;;;7399146;19;20607;-69
2023/03/07 05:12:23;;;;;;;24.33;12.20;;;;;-0.20;92609.00;;;;7398776;19;20129;-69
2023/03/07 05:14:51;;;;;;;19.93;11.30;;;;;-0.30;92592.00;;;;7400261;19;20124;-69
2023/03/07 05:17:24;;;;;;;18.77;11.33;;;;;-0.30;92591.00;;;;7398528;19;20659;-69
2023/03/07 05:19:54;;;;;;;20.20;10.57;;;;;-0.20;92584.00;;;;7398545;19;20652;-69
2023/03/07 05:22:28;;;;;;;18.53;10.87;;;;;-0.20;92589.00;;;;7396845;19;20152;-69
2023/03/07 05:24:57;;;;;;;18.47;11.30;;;;;-0.10;92594.00;;;;7399324;19;20220;-69
2023/03/07 05:27:24;;;;;;;16.00;10.77;;;;;-0.20;92585.00;;;;7396457;19;20167;-70
2023/03/07 05:29:59;;;;;;;22.10;11.10;;;;;-0.10;92592.00;;;;7397125;19;20136;-69
2023/03/07 05:32:26;;;;;;;17.97;11.17;;;;;-0.10;92581.00;;;;7397901;19;20148;-69
2023/03/07 05:35:00;;;;;;;18.83;9.57;;;;;-0.10;92593.00;;;;7398049;19;20188;-70
2023/03/07 05:37:28;;;;;;;19.60;10.53;;;;;-0.10;92584.00;;;;7395983;19;20663;-69
2023/03/07 05:39:55;;;;;;;14.27;9.10;;;;;-0.10;92590.00;;;;7400119;19;20186;-69
2023/03/07 05:42:29;;;;;;;16.10;10.20;;;;;-0.10;92577.00;;;;7396593;19;20492;-70
2023/03/07 05:44:57;;;;;;;16.93;9.47;;;;;0.10;92580.00;;;;7397098;19;20588;-70
2023/03/07 05:47:30;;;;;;;17.27;10.07;;;;;0.00;92583.00;;;;7395180;19;20502;-69
2023/03/07 05:50:06;;;;;;;15.77;9.80;;;;;0.10;92578.00;;;;7399522;19;20188;-69
2023/03/07 05:52:40;;;;;;;16.00;10.50;;;;;0.10;92575.00;;;;7398740;19;20164;-69
2023/03/07 05:55:14;;;;;;;17.00;10.40;;;;;0.10;92570.00;;;;7396267;19;20505;-69
2023/03/07 05:57:49;;;;;;;17.13;9.83;;;;;0.20;92566.00;;;;7397333;19;20493;-69
2023/03/07 06:00:23;;;;;;;14.87;9.47;;;;;0.10;92566.00;;;;7396547;19;20137;-68
2023/03/07 06:02:51;;;;;;;17.83;10.20;;;;;0.10;92555.00;;;;7396098;19;20137;-68
2023/03/07 06:05:27;;;;;;;18.40;9.83;;;;;0.20;92562.00;;;;7395218;19;20480;-68
2023/03/07 06:08:07;;;;;;;17.17;10.10;;;;;0.20;92571.00;;;;7397300;19;20609;-68
2023/03/07 06:10:41;;;;;;;15.00;10.10;;;;;0.20;92560.00;;;;7395557;19;20163;-68
2023/03/07 06:13:18;;;;;;;17.87;9.60;;;;;0.20;92554.00;;;;7397005;19;20148;-71
2023/03/07 06:15:51;;;;;;;15.27;9.37;;;;;0.20;92557.00;;;;7396617;19;20129;-69
2023/03/07 06:18:25;;;;;;;13.70;8.97;;;;;0.30;92561.00;;;;7395387;19;20169;-69
2023/03/07 06:21:01;;;;;;;14.60;9.13;;;;;0.30;92556.00;;;;7398369;19;20138;-69
2023/03/07 06:23:31;;;;;;;16.40;9.47;;;;;0.30;92556.00;;;;7398641;19;20599;-68
2023/03/07 06:26:06;;;;;;;20.30;10.00;;;;;0.30;92552.00;;;;7396619;19;20155;-68
2023/03/07 06:28:35;;;;;;;15.63;9.83;;;;;0.30;92558.00;;;;7394774;19;20476;-69
2023/03/07 06:31:12;;;;;;;16.27;10.30;;;;;0.30;92547.00;;;;7397262;19;20132;-68
2023/03/07 06:33:39;;;;;;;15.33;9.40;;;;;0.40;92556.00;;;;7395846;19;20129;-68
2023/03/07 06:36:15;;;;;;;14.07;9.17;;;;;0.30;92554.00;;;;7396110;19;20145;-69
2023/03/07 06:38:49;;;;;;;15.23;9.70;;;;;0.40;92565.00;;;;7396249;19;20144;-69
2023/03/07 06:41:17;;;;;;;14.23;9.67;;;;;0.50;92572.00;;;;7398217;19;20519;-69
2023/03/07 06:43:58;;;;;;;13.87;9.30;;;;;0.50;92564.00;;;;7396269;19;20172;-69
2023/03/07 06:46:26;;;;;;;14.27;8.63;;;;;0.60;92569.00;;;;7394784;19;20139;-69
2023/03/07 06:48:59;;;;;;;14.50;9.70;;;;;0.70;92562.00;;;;7395581;19;20139;-69
2023/03/07 06:51:27;;;;;;;13.87;9.43;;;;;0.50;92574.00;;;;7397375;19;20121;-69
2023/03/07 06:54:04;;;;;;;14.23;8.83;;;;;0.60;92573.00;;;;7396707;19;20473;-69
2023/03/07 06:56:37;;;;;;;13.73;9.30;;;;;0.60;92566.00;;;;7394743;19;20132;-73
2023/03/07 06:59:12;;;;;;;17.23;10.07;;;;;0.50;92569.00;;;;7395733;19;20578;-70
2023/03/07 07:01:47;;;;;;;15.33;9.33;;;;;0.60;92567.00;;;;7394239;19;20494;-70
2023/03/07 07:04:22;;;;;;;13.90;9.30;;;;;0.70;92563.00;;;;7396865;19;20117;-69
2023/03/07 07:06:56;;;;;;;14.13;9.17;;;;;0.80;92559.00;;;;7391269;19;20149;-70
2023/03/07 07:09:30;;;;;;;14.77;9.27;;;;;0.80;92562.00;;;;7393548;19;20160;-68
2023/03/07 07:11:58;;;;;;;14.17;8.83;;;;;0.80;92558.00;;;;7395465;19;20136;-69
2023/03/07 07:14:33;;;;;;;14.10;8.87;;;;;0.90;92563.00;;;;7397235;19;20603;-69
2023/03/07 07:17:01;;;;;;;12.87;8.47;;;;;0.90;92558.00;;;;7391693;19;20192;-69
2023/03/07 07:19:35;;;;;;;13.07;8.40;;;;;0.90;92565.00;;;;7395180;19;20124;-70
2023/03/07 07:22:02;;;;;;;12.37;8.27;;;;;0.90;92572.00;;;;7394525;19;20501;-70
2023/03/07 07:24:37;;;;;;;12.70;8.37;;;;;0.90;92565.00;;;;7395016;19;20151;-70
2023/03/07 07:27:05;;;;;;;12.20;8.67;;;;;0.90;92568.00;;;;7393273;19;20152;-71
2023/03/07 07:29:39;;;;;;;12.50;8.07;;;;;0.80;92575.00;;;;7391779;19;20196;-73
2023/03/07 07:32:13;;;;;;;12.97;7.80;;;;;0.90;92575.00;;;;7394718;19;20137;-70
2023/03/07 07:34:41;;;;;;;13.07;8.10;;;;;0.90;92574.00;;;;7396477;19;20137;-71
2023/03/07 07:37:15;;;;;;;13.87;8.50;;;;;1.00;92574.00;;;;7395043;19;20146;-71
2023/03/07 07:39:50;;;;;;;13.53;8.93;;;;;1.00;92572.00;;;;7394913;19;20152;-71
2023/03/07 07:42:17;;;;;;;12.07;7.73;;;;;1.10;92579.00;;;;7395037;19;20587;-73
2023/03/07 07:44:51;;;;;;;12.97;8.30;;;;;1.30;92575.00;;;;7395548;19;20164;-74
2023/03/07 07:47:19;;;;;;;10.57;7.37;;;;;1.40;92583.00;;;;7392385;19;20632;-74
2023/03/07 07:49:52;;;;;;;11.90;8.07;;;;;1.20;92562.00;;;;7393577;19;20160;-73
2023/03/07 07:52:20;;;;;;;11.13;7.40;;;;;1.40;92567.00;;;;7394030;19;20147;-73
2023/03/07 07:54:54;;;;;;;12.07;7.80;;;;;1.60;92569.00;;;;7394115;19;20605;-74
2023/03/07 07:57:28;;;;;;;12.83;7.80;;;;;1.60;92566.00;;;;7392343;19;20129;-70
2023/03/07 07:59:56;;;;;;;13.27;8.03;;;;;1.50;92571.00;;;;7394152;19;20153;-70
2023/03/07 08:02:30;;;;;;;11.90;7.97;;;;;1.80;92563.00;;;;7390456;19;20622;-72
2023/03/07 08:04:57;;;;;;;15.37;8.80;;;;;1.70;92562.00;;;;7395164;19;20529;-75
2023/03/07 08:07:24;;;;;;;12.33;7.47;;;;;1.80;92553.00;;;;7389818;19;20181;-73
2023/03/07 08:09:58;;;;;;;16.03;8.20;;;;;1.80;92558.00;;;;7390940;19;20117;-74
2023/03/07 08:12:32;;;;;;;12.90;7.77;;;;;1.70;92552.00;;;;7393745;19;20555;-72
2023/03/07 08:15:00;;;;;;;13.10;8.60;;;;;1.70;92553.00;;;;7391022;19;20164;-71
2023/03/07 08:17:33;;;;;;;10.67;7.03;;;;;1.60;92547.00;;;;7388375;19;20184;-71
2023/03/07 08:20:07;;;;;;;13.43;7.70;;;;;1.60;92557.00;;;;7392314;19;20632;-71
2023/03/07 08:22:42;;;;;;;13.10;7.23;;;;;1.40;92561.00;;;;7393705;19;20117;-72
2023/03/07 08:25:20;;;;;;;11.63;7.03;;;;;1.10;92553.00;;;;7394795;19;20148;-71
2023/03/07 08:27:55;;;;;;;11.07;7.30;;;;;1.40;92549.00;;;;7391823;19;20204;-70
2023/03/07 08:30:31;;;;;;;11.37;7.20;;;;;1.30;92543.00;;;;7393499;19;20203;-72
2023/03/07 08:32:59;;;;;;;9.07;6.80;;;;;1.30;92551.00;;;;7393263;19;20152;-72
2023/03/07 08:35:32;;;;;;;10.10;6.73;;;;;1.40;92547.00;;;;7398555;19;20141;-71
2023/03/07 08:38:07;;;;;;;11.73;7.00;;;;;1.40;92550.00;;;;7399551;19;20223;-71
2023/03/07 08:40:41;;;;;;;10.30;6.27;;;;;1.40;92540.00;;;;7398140;19;20159;-71
2023/03/07 08:43:15;;;;;;;10.30;6.27;;;;;1.30;92542.00;;;;7399889;19;20140;-71
2023/03/07 08:45:43;;;;;;;9.93;5.77;;;;;1.60;92536.00;;;;7400185;19;20176;-74
2023/03/07 08:48:16;;;;;;;8.53;6.20;;;;;1.70;92536.00;;;;7400124;19;20148;-71
2023/03/07 08:50:51;;;;;;;8.83;6.07;;;;;1.80;92536.00;;;;7398537;19;20129;-75
2023/03/07 08:53:21;;;;;;;8.37;5.60;;;;;1.90;92536.00;;;;7401069;19;20133;-72
2023/03/07 08:55:55;;;;;;;11.57;5.57;;;;;1.90;92529.00;;;;7398829;19;20128;-74
2023/03/07 08:58:23;;;;;;;10.33;5.67;;;;;2.10;92522.00;;;;7400532;19;20129;-75
2023/03/07 09:00:57;;;;;;;8.37;5.90;;;;;2.20;92524.00;;;;7399834;19;20607;-74
2023/03/07 09:03:25;;;;;;;9.17;5.83;;;;;2.20;92523.00;;;;7397741;19;20821;-74
2023/03/07 09:06:05;;;;;;;8.53;5.50;;;;;1.80;92520.00;;;;7395249;19;20163;-74
2023/03/07 09:08:33;;;;;;;7.43;4.97;;;;;1.80;92517.00;;;;7392289;19;20167;-72
2023/03/07 09:11:07;;;;;;;8.60;5.37;;;;;1.70;92514.00;;;;7399462;19;20137;-74
2023/03/07 09:13:34;;;;;;;6.80;5.30;;;;;2.00;92510.00;;;;7398545;19;20200;-74
2023/03/07 09:16:19;;;;;;;7.40;4.93;;;;;2.00;92513.00;;;;7397489;19;20210;-72
2023/03/07 09:18:52;;;;;;;7.53;5.13;;;;;2.10;92524.00;;;;7398627;19;20151;-73
2023/03/07 09:21:26;;;;;;;7.63;4.57;;;;;1.90;92526.00;;;;7397224;19;20141;-75
2023/03/07 09:24:00;;;;;;;7.43;5.23;;;;;1.90;92526.00;;;;7401025;19;20145;-74
2023/03/07 09:26:34;;;;;;;9.27;4.70;;;;;1.70;92524.00;;;;7396738;19;20159;-74
2023/03/07 09:29:08;;;;;;;6.57;4.93;;;;;2.00;92511.00;;;;7397389;19;20124;-74
2023/03/07 09:31:43;;;;;;;7.27;4.43;;;;;2.10;92525.00;;;;7396780;19;20154;-74
2023/03/07 09:34:11;;;;;;;9.50;5.27;;;;;2.00;92519.00;;;;7398419;19;20141;-74
2023/03/07 09:36:39;;;;;;;6.83;4.90;;;;;2.00;92522.00;;;;7397723;19;20121;-73
2023/03/07 09:39:13;;;;;;;7.43;4.93;;;;;1.90;92522.00;;;;7400925;19;20204;-72
2023/03/07 09:42:07;;;;;;;6.10;4.80;;;;;2.10;92514.00;;;;7396964;19;20657;-74
2023/03/07 09:44:50;;;;;;;6.37;4.63;;;;;2.00;92502.00;;;;7399030;19;20144;-72
2023/03/07 09:47:41;;;;;;;7.40;4.93;;;;;2.30;92513.00;;;;7393453;19;20149;-70
2023/03/07 09:50:36;;;;;;;8.57;4.83;;;;;2.00;92502.00;;;;7397335;19;20447;-73
2023/03/07 09:53:04;;;;;;;7.90;4.83;;;;;2.30;92501.00;;;;7397923;19;20129;-72
2023/03/07 09:55:38;;;;;;;8.00;5.30;;;;;1.90;92506.00;;;;7394922;19;20617;-72
2023/03/07 09:58:14;;;;;;;5.90;4.27;;;;;2.10;92501.00;;;;7391078;19;20147;-71
2023/03/07 10:00:54;;;;;;;7.77;4.67;;;;;2.10;92499.00;;;;7393877;19;20489;-72
2023/03/07 10:03:41;;;;;;;8.90;4.73;;;;;1.90;92493.00;;;;7390543;19;20523;-72
2023/03/07 10:06:35;;;;;;;9.70;4.97;;;;;2.20;92495.00;;;;7391781;19;20628;-73
2023/03/07 10:09:13;;;;;;;7.80;4.80;;;;;2.40;92484.00;;;;7395080;19;20604;-72
2023/03/07 10:12:13;;;;;;;8.87;5.63;;;;;2.40;92499.00;;;;7393405;19;20136;-72
2023/03/07 10:14:49;;;;;;;10.23;5.63;;;;;2.30;92490.00;;;;7393492;19;20216;-72
2023/03/07 10:17:43;;;;;;;9.57;5.47;;;;;2.10;92485.00;;;;7391786;19;20132;-72
2023/03/07 10:20:55;;;;;;;10.43;5.90;;;;;1.90;92482.00;;;;7394077;19;20138;-72
2023/03/07 10:23:59;;;;;;;8.23;5.67;;;;;1.80;92486.00;;;;7394436;19;20608;-71
2023/03/07 10:26:37;;;;;;;9.63;5.67;;;;;1.70;92473.00;;;;7392084;19;20780;-71
2023/03/07 10:29:17;;;;;;;9.17;5.80;;;;;2.00;92471.00;;;;7393706;19;20125;-70
2023/03/07 10:31:57;;;;;;;9.77;6.27;;;;;2.20;92471.00;;;;7394197;19;20128;-69
2023/03/07 10:38:58;;;;;;;8.47;5.40;;;;;2.40;92452.00;;;;7382120;19;20148;-73
2023/03/07 10:41:32;;;;;;;8.73;5.67;;;;;2.10;92445.00;;;;7383544;19;20159;-72
2023/03/07 10:44:00;;;;;;;9.10;5.43;;;;;2.00;92454.00;;;;7390603;19;20289;-72
2023/03/07 10:46:36;;;;;;;10.53;5.60;;;;;2.30;92447.00;;;;7387171;19;20587;-71
2023/03/07 10:49:22;;;;;;;9.27;5.80;;;;;2.30;92458.00;;;;7392209;19;20583;-73
2023/03/07 10:52:14;;;;;;;10.67;5.53;;;;;2.50;92460.00;;;;7392850;19;20218;-73
2023/03/07 10:54:41;;;;;;;9.03;4.80;;;;;2.50;92438.00;;;;7393758;19;20848;-75
2023/03/07 10:57:18;;;;;;;6.83;4.73;;;;;2.70;92436.00;;;;7387631;19;20156;-74
2023/03/07 10:59:48;;;;;;;7.30;5.67;;;;;2.50;92437.00;;;;7380748;19;20600;-73
2023/03/07 11:02:34;;;;;;;9.20;5.00;;;;;2.30;92436.00;;;;7391851;19;20152;-74
2023/03/07 11:05:16;;;;;;;8.70;5.03;;;;;2.50;92437.00;;;;7392249;19;20598;-74
2023/03/07 11:08:18;;;;;;;7.13;5.03;;;;;2.50;92448.00;;;;7388064;19;20164;-74
2023/03/07 11:10:52;;;;;;;7.03;4.70;;;;;2.20;92460.00;;;;7390144;19;20583;-73
2023/03/07 11:13:22;;;;;;;8.23;5.13;;;;;2.20;92443.00;;;;7390209;19;20137;-73
2023/03/07 11:16:18;;;;;;;9.27;4.97;;;;;2.10;92443.00;;;;7388105;19;20136;-72
2023/03/07 11:18:51;;;;;;;8.43;5.00;;;;;2.20;92431.00;;;;7390837;19;20535;-74
2023/03/07 11:21:35;;;;;;;7.90;5.20;;;;;2.50;92441.00;;;;7389663;19;20125;-75
2023/03/07 11:24:24;;;;;;;8.23;4.80;;;;;2.50;92446.00;;;;7387302;19;20166;-74
2023/03/07 11:26:57;;;;;;;7.53;5.10;;;;;2.50;92441.00;;;;7391142;19;20170;-74
2023/03/07 11:29:34;;;;;;;9.73;5.13;;;;;2.40;92438.00;;;;7390106;19;20148;-74
2023/03/07 11:32:04;;;;;;;9.90;5.30;;;;;2.70;92433.00;;;;7389148;19;20129;-74
2023/03/07 11:34:43;;;;;;;8.77;5.07;;;;;2.40;92432.00;;;;7389304;19;20160;-73
2023/03/07 11:37:31;;;;;;;7.50;4.73;;;;;2.70;92429.00;;;;7391899;19;20199;-73
2023/03/07 11:40:30;;;;;;;7.70;4.93;;;;;2.90;92437.00;;;;7391675;19;20117;-72
2023/03/07 11:43:15;;;;;;;6.87;4.87;;;;;2.90;92441.00;;;;7391978;19;20136;-72
2023/03/07 11:46:16;;;;;;;7.33;4.50;;;;;2.90;92435.00;;;;7390654;19;20128;-73
2023/03/07 11:49:37;;;;;;;7.87;4.20;;;;;3.10;92422.00;;;;7390733;19;20141;-74
2023/03/07 11:52:14;;;;;;;6.87;4.87;;;;;3.00;92425.00;;;;7388219;19;20124;-73
2023/03/07 11:54:57;;;;;;;8.97;5.40;;;;;3.20;92416.00;;;;7388311;19;20156;-72
2023/03/07 11:57:40;;;;;;;7.07;4.47;;;;;3.90;92411.00;;;;7390906;19;20121;-72
2023/03/07 12:00:31;;;;;;;6.80;4.87;;;;;4.00;92402.00;;;;7390953;19;20133;-73
2023/03/07 12:03:14;;;;;;;8.00;4.90;;;;;4.30;92410.00;;;;7388096;19;20176;-71
2023/03/07 12:06:10;;;;;;;8.70;5.27;;;;;4.60;92421.00;;;;7388940;19;20571;-71
2023/03/07 12:09:28;;;;;;;8.50;4.97;;;;;4.00;92408.00;;;;7384468;19;20595;-70
2023/03/07 12:12:08;;;;;;;6.13;4.50;;;;;3.70;92416.00;;;;7387571;19;20196;-72
2023/03/07 12:15:17;;;;;;;6.77;4.10;;;;;3.50;92415.00;;;;7389202;19;20222;-72
2023/03/07 12:18:32;;;;;;;6.30;4.53;;;;;3.40;92404.00;;;;7390407;19;20137;-71
2023/03/07 12:21:41;;;;;;;5.33;4.30;;;;;3.20;92402.00;;;;7384478;19;20961;-72
2023/03/07 12:24:28;;;;;;;7.30;4.67;;;;;3.40;92406.00;;;;7388529;19;20129;-72
2023/03/07 12:27:22;;;;;;;7.13;4.57;;;;;3.60;92395.00;;;;7386949;19;20145;-71
2023/03/07 12:30:14;;;;;;;7.73;5.07;;;;;3.20;92383.00;;;;7387141;19;20152;-72
2023/03/07 12:32:42;;;;;;;6.43;4.40;;;;;3.30;92372.00;;;;7385802;19;20572;-71
2023/03/07 12:35:40;;;;;;;6.17;4.40;;;;;3.30;92366.00;;;;7387927;19;20136;-71
2023/03/07 12:38:17;;;;;;;8.37;4.63;;;;;3.50;92355.00;;;;7390375;19;20201;-71
2023/03/07 12:40:59;;;;;;;6.83;4.70;;;;;3.70;92372.00;;;;7387076;19;20133;-71
2023/03/07 12:43:41;;;;;;;6.67;4.20;;;;;3.70;92355.00;;;;7387958;19;20204;-72
2023/03/07 12:46:37;;;;;;;7.70;4.23;;;;;4.30;92353.00;;;;7387710;19;20626;-75
2023/03/07 12:49:40;;;;;;;5.83;3.90;;;;;3.80;92357.00;;;;7380008;19;20133;-72
2023/03/07 12:52:39;;;;;;;6.00;4.03;;;;;3.70;92358.00;;;;7387639;19;20486;-71
2023/03/07 12:55:41;;;;;;;6.37;3.67;;;;;3.60;92351.00;;;;7387029;19;20132;-72
2023/03/07 12:58:24;;;;;;;6.93;3.80;;;;;3.60;92350.00;;;;7387251;19;20502;-71
2023/03/07 13:01:16;;;;;;;5.33;3.80;;;;;3.40;92352.00;;;;7385955;19;20475;-72